createdAt,value
2022-07-30T00:00:25.153Z,14.63
2022-07-30T00:02:52.565Z,11.80
2022-07-30T00:05:19.627Z,10.70
2022-07-30T00:07:46.286Z,16.10
2022-07-30T00:10:13.034Z,19.52
2022-07-30T00:12:39.859Z,14.05
2022-07-30T00:15:07.283Z,14.48
2022-07-30T00:17:33.994Z,15.02
2022-07-30T00:20:01.335Z,13.00
2022-07-30T00:22:30.924Z,11.52
2022-07-30T00:24:57.660Z,18.05
2022-07-30T00:27:24.398Z,12.52
2022-07-30T00:29:51.157Z,9.85
2022-07-30T00:32:17.896Z,10.45
2022-07-30T00:34:44.652Z,12.00
2022-07-30T00:37:11.377Z,14.40
2022-07-30T00:39:38.337Z,10.90
2022-07-30T00:42:05.113Z,11.95
2022-07-30T00:44:31.832Z,11.70
2022-07-30T00:46:59.232Z,15.00
2022-07-30T00:49:27.136Z,10.90
2022-07-30T00:51:54.203Z,11.55
2022-07-30T00:54:21.661Z,11.98
2022-07-30T00:56:48.994Z,9.52
2022-07-30T00:59:16.000Z,9.52
2022-07-30T01:01:42.645Z,11.80
2022-07-30T01:04:11.993Z,10.82
2022-07-30T01:06:39.934Z,11.27
2022-07-30T01:09:07.584Z,13.85
2022-07-30T01:11:38.999Z,16.65
2022-07-30T01:14:07.752Z,12.52
2022-07-30T01:16:36.432Z,7.43
2022-07-30T01:19:28.154Z,11.75
2022-07-30T01:22:04.165Z,11.60
2022-07-30T01:24:38.363Z,8.55
2022-07-30T01:27:07.757Z,10.95
2022-07-30T01:29:36.315Z,7.85
2022-07-30T01:32:04.827Z,10.05
2022-07-30T01:34:34.551Z,8.95
2022-07-30T01:37:04.014Z,12.02
2022-07-30T01:39:32.155Z,10.02
2022-07-30T01:42:00.696Z,10.38
2022-07-30T01:44:29.052Z,11.55
2022-07-30T01:46:57.013Z,10.40
2022-07-30T01:49:26.065Z,13.02
2022-07-30T01:51:54.884Z,9.02
2022-07-30T01:54:24.202Z,6.47
2022-07-30T01:56:55.346Z,8.45
2022-07-30T01:59:24.485Z,8.30
2022-07-30T02:01:51.446Z,8.13
2022-07-30T02:04:18.376Z,8.45
2022-07-30T02:07:02.062Z,7.22
2022-07-30T02:09:36.321Z,10.00
2022-07-30T02:12:24.044Z,7.68
2022-07-30T02:14:56.994Z,7.78
2022-07-30T02:17:39.527Z,7.03
2022-07-30T02:20:10.051Z,5.50
2022-07-30T02:22:39.937Z,13.02
2022-07-30T02:25:09.199Z,9.85
2022-07-30T02:27:38.991Z,14.48
2022-07-30T02:30:07.896Z,9.35
2022-07-30T02:32:37.786Z,10.32
2022-07-30T02:35:14.296Z,12.98
2022-07-30T02:37:43.759Z,12.40
2022-07-30T02:40:15.978Z,9.55
2022-07-30T02:42:45.848Z,13.15
2022-07-30T02:45:13.224Z,9.82
2022-07-30T02:47:41.133Z,12.35
2022-07-30T02:50:10.001Z,7.82
2022-07-30T02:52:40.499Z,9.98
2022-07-30T02:55:10.019Z,11.70
2022-07-30T02:57:43.299Z,8.70
2022-07-30T03:00:11.999Z,10.80
2022-07-30T03:02:40.815Z,15.82
2022-07-30T03:05:11.868Z,10.50
2022-07-30T03:07:40.551Z,15.75
2022-07-30T03:10:08.102Z,12.80
2022-07-30T03:12:37.661Z,9.27
2022-07-30T03:15:05.056Z,8.75
2022-07-30T03:17:38.448Z,6.97
2022-07-30T03:20:09.505Z,12.35
2022-07-30T03:22:43.339Z,9.65
2022-07-30T03:25:12.926Z,17.73
2022-07-30T03:27:40.530Z,11.10
2022-07-30T03:30:08.330Z,15.70
2022-07-30T03:32:37.060Z,15.15
2022-07-30T03:35:06.667Z,8.55
2022-07-30T03:37:40.453Z,9.40
2022-07-30T03:40:08.438Z,11.02
2022-07-30T03:42:36.273Z,8.10
2022-07-30T03:45:07.754Z,13.23
2022-07-30T03:47:38.855Z,9.05
2022-07-30T03:50:06.596Z,10.48
2022-07-30T03:52:35.708Z,9.43
2022-07-30T03:55:04.060Z,6.97
2022-07-30T03:57:31.067Z,11.93
2022-07-30T03:59:57.816Z,15.13
2022-07-30T04:02:24.862Z,12.32
2022-07-30T04:04:51.670Z,13.27
2022-07-30T04:07:18.570Z,12.82
2022-07-30T04:09:45.283Z,10.98
2022-07-30T04:12:14.065Z,8.50
2022-07-30T04:14:43.250Z,15.98
2022-07-30T04:17:15.397Z,9.10
2022-07-30T04:19:53.342Z,14.02
2022-07-30T04:22:34.150Z,14.02
2022-07-30T04:25:02.781Z,12.70
2022-07-30T04:27:32.034Z,9.30
2022-07-30T04:29:58.945Z,13.02
2022-07-30T04:32:26.060Z,13.05
2022-07-30T04:34:55.494Z,10.25
2022-07-30T04:37:24.973Z,14.60
2022-07-30T04:39:55.142Z,13.13
2022-07-30T04:42:22.507Z,9.73
2022-07-30T04:44:49.955Z,13.60
2022-07-30T04:47:17.578Z,10.57
2022-07-30T04:49:45.392Z,11.15
2022-07-30T04:52:13.511Z,9.02
2022-07-30T04:54:57.886Z,13.20
2022-07-30T04:57:26.645Z,8.15
2022-07-30T04:59:53.566Z,7.95
2022-07-30T05:02:22.582Z,7.13
2022-07-30T05:04:50.241Z,9.55
2022-07-30T05:07:19.103Z,10.50
2022-07-30T05:09:49.036Z,13.75
2022-07-30T05:12:16.190Z,10.07
2022-07-30T05:14:47.918Z,12.63
2022-07-30T05:17:14.956Z,13.60
2022-07-30T05:19:41.652Z,9.73
2022-07-30T05:22:08.385Z,11.80
2022-07-30T05:24:35.033Z,8.70
2022-07-30T05:27:02.356Z,8.73
2022-07-30T05:29:29.313Z,8.75
2022-07-30T05:31:56.819Z,7.65
2022-07-30T05:34:29.429Z,16.08
2022-07-30T05:36:56.122Z,9.95
2022-07-30T05:39:22.837Z,11.25
2022-07-30T05:41:49.555Z,9.60
2022-07-30T05:44:19.657Z,13.23
2022-07-30T05:46:49.313Z,8.57
2022-07-30T05:49:16.113Z,13.73
2022-07-30T05:51:43.294Z,10.85
2022-07-30T05:54:11.475Z,10.82
2022-07-30T05:56:38.430Z,10.73
2022-07-30T05:59:05.366Z,7.93
2022-07-30T06:01:32.026Z,8.57
2022-07-30T06:03:58.730Z,8.40
2022-07-30T06:06:25.360Z,17.75
2022-07-30T06:08:52.069Z,12.20
2022-07-30T06:11:18.944Z,12.13
2022-07-30T06:13:45.670Z,12.13
2022-07-30T06:16:12.490Z,10.40
2022-07-30T06:18:39.231Z,9.15
2022-07-30T06:21:06.330Z,13.40
2022-07-30T06:23:33.075Z,13.45
2022-07-30T06:25:59.884Z,17.40
2022-07-30T06:28:42.070Z,9.23
2022-07-30T06:31:08.869Z,11.50
2022-07-30T06:33:35.595Z,13.48
2022-07-30T06:36:02.596Z,16.75
2022-07-30T06:38:29.429Z,14.35
2022-07-30T06:41:01.977Z,14.18
2022-07-30T06:45:56.572Z,18.17
2022-07-30T06:48:23.428Z,16.77
2022-07-30T06:50:50.284Z,16.80
2022-07-30T06:53:17.078Z,16.92
2022-07-30T06:55:43.876Z,16.02
2022-07-30T06:58:10.612Z,16.85
2022-07-30T07:00:37.330Z,15.68
2022-07-30T07:03:07.441Z,12.07
2022-07-30T07:05:36.827Z,11.38
2022-07-30T07:08:03.697Z,16.63
2022-07-30T07:10:30.508Z,15.70
2022-07-30T07:12:57.239Z,16.42
2022-07-30T07:15:36.978Z,16.65
2022-07-30T07:18:05.416Z,14.85
2022-07-30T07:20:32.902Z,17.75
2022-07-30T07:22:59.949Z,15.80
2022-07-30T07:25:26.986Z,13.02
2022-07-30T07:28:11.660Z,17.20
2022-07-30T07:30:41.968Z,14.50
2022-07-30T07:33:09.332Z,14.63
2022-07-30T07:35:48.457Z,11.98
2022-07-30T07:38:18.070Z,18.48
2022-07-30T07:40:45.118Z,15.80
2022-07-30T07:43:11.850Z,13.57
2022-07-30T07:45:39.372Z,15.50
2022-07-30T07:48:06.631Z,15.80
2022-07-30T07:50:33.769Z,14.95
2022-07-30T07:53:00.910Z,11.88
2022-07-30T07:55:27.749Z,12.38
2022-07-30T07:57:54.566Z,11.10
2022-07-30T08:00:21.926Z,9.93
2022-07-30T08:02:49.212Z,10.55
2022-07-30T08:05:16.545Z,13.65
2022-07-30T08:07:44.344Z,12.38
2022-07-30T08:10:14.055Z,13.23
2022-07-30T08:12:41.079Z,12.82
2022-07-30T08:15:09.575Z,14.05
2022-07-30T08:17:43.956Z,10.43
2022-07-30T08:20:12.154Z,9.20
2022-07-30T08:22:39.405Z,12.23
2022-07-30T08:25:06.583Z,16.73
2022-07-30T08:27:33.632Z,11.43
2022-07-30T08:30:10.204Z,13.43
2022-07-30T08:32:37.686Z,15.15
2022-07-30T08:35:06.002Z,9.90
2022-07-30T08:37:34.320Z,14.20
2022-07-30T08:40:01.142Z,11.90
2022-07-30T08:42:28.244Z,11.15
2022-07-30T08:44:56.671Z,15.02
2022-07-30T08:47:31.294Z,10.93
2022-07-30T08:50:04.553Z,10.77
2022-07-30T08:52:33.590Z,9.95
2022-07-30T08:55:01.145Z,10.25
2022-07-30T08:57:32.952Z,10.05
2022-07-30T09:00:01.825Z,10.32
2022-07-30T09:02:34.192Z,14.57
2022-07-30T09:05:03.056Z,9.23
2022-07-30T09:07:30.022Z,9.38
2022-07-30T09:09:57.028Z,8.40
2022-07-30T09:12:41.786Z,8.63
2022-07-30T09:15:20.514Z,11.82
2022-07-30T09:17:54.937Z,6.63
2022-07-30T09:20:24.381Z,9.23
2022-07-30T09:22:54.394Z,7.63
2022-07-30T09:25:41.514Z,6.45
2022-07-30T09:28:16.184Z,7.88
2022-07-30T09:30:56.268Z,6.57
2022-07-30T09:33:43.435Z,6.95
2022-07-30T09:36:14.240Z,11.57
2022-07-30T09:38:52.209Z,11.93
2022-07-30T09:41:40.444Z,9.52
2022-07-30T09:44:07.937Z,11.38
2022-07-30T09:46:49.287Z,11.85
2022-07-30T09:49:18.571Z,9.88
2022-07-30T09:51:55.945Z,12.10
2022-07-30T09:54:52.801Z,10.02
2022-07-30T09:57:26.046Z,10.32
2022-07-30T09:59:59.943Z,13.77
2022-07-30T10:02:34.061Z,9.10
2022-07-30T10:05:14.460Z,6.38
2022-07-30T10:07:52.590Z,6.05
2022-07-30T10:10:25.500Z,6.55
2022-07-30T10:12:57.173Z,6.43
2022-07-30T10:15:29.052Z,4.25
2022-07-30T10:17:57.202Z,4.93
2022-07-30T10:20:24.462Z,5.97
2022-07-30T10:22:53.138Z,4.57
2022-07-30T10:25:23.196Z,6.30
2022-07-30T10:28:00.557Z,8.35
2022-07-30T10:30:31.109Z,4.70
2022-07-30T10:33:00.235Z,3.38
2022-07-30T10:35:41.734Z,3.97
2022-07-30T10:38:14.740Z,1.40
2022-07-30T10:40:50.499Z,3.70
2022-07-30T10:43:45.329Z,2.03
2022-07-30T10:46:28.619Z,6.75
2022-07-30T10:48:57.636Z,3.55
2022-07-30T10:51:43.899Z,4.97
2022-07-30T10:54:40.315Z,4.00
2022-07-30T10:57:15.001Z,4.43
2022-07-30T10:59:49.709Z,6.20
2022-07-30T11:02:19.731Z,3.50
2022-07-30T11:04:59.028Z,4.00
2022-07-30T11:07:29.251Z,5.75
2022-07-30T11:10:08.963Z,6.53
2022-07-30T11:12:56.034Z,4.10
2022-07-30T11:15:23.677Z,5.22
2022-07-30T11:18:12.047Z,3.05
2022-07-30T11:20:41.168Z,2.38
2022-07-30T11:23:19.116Z,1.20
2022-07-30T11:25:51.804Z,0.75
2022-07-30T11:28:39.800Z,0.63
2022-07-30T11:31:56.455Z,2.25
2022-07-30T11:34:27.942Z,1.05
2022-07-30T11:37:34.414Z,0.60
2022-07-30T11:40:07.582Z,0.95
2022-07-30T11:43:14.078Z,1.20
2022-07-30T11:45:41.495Z,1.95
2022-07-30T11:48:13.450Z,1.58
2022-07-30T11:50:41.147Z,3.03
2022-07-30T11:53:11.152Z,1.48
2022-07-30T11:55:43.794Z,0.65
2022-07-30T11:58:24.270Z,1.02
2022-07-30T12:00:51.260Z,2.00
2022-07-30T12:03:20.313Z,2.10
2022-07-30T12:05:52.662Z,0.50
2022-07-30T12:08:31.623Z,0.57
2022-07-30T12:11:02.460Z,0.55
2022-07-30T12:13:44.587Z,1.60
2022-07-30T12:16:18.478Z,0.88
2022-07-30T12:18:47.151Z,1.85
2022-07-30T12:21:17.747Z,0.77
2022-07-30T12:24:02.877Z,0.68
2022-07-30T12:26:32.466Z,1.17
2022-07-30T12:29:01.844Z,1.05
2022-07-30T12:31:29.345Z,0.65
2022-07-30T12:33:58.209Z,1.90
2022-07-30T12:36:31.520Z,2.10
2022-07-30T12:38:58.861Z,1.30
2022-07-30T12:41:42.737Z,1.98
2022-07-30T12:44:10.237Z,1.48
2022-07-30T12:46:41.442Z,3.08
2022-07-30T12:49:22.018Z,0.70
2022-07-30T12:51:59.874Z,0.90
2022-07-30T12:54:28.146Z,2.25
2022-07-30T12:57:06.468Z,1.55
2022-07-30T12:59:38.988Z,1.20
2022-07-30T13:02:06.011Z,4.15
2022-07-30T13:04:36.079Z,1.48
2022-07-30T13:07:12.659Z,2.10
2022-07-30T13:09:43.112Z,2.63
2022-07-30T13:12:14.461Z,1.73
2022-07-30T13:14:41.232Z,0.70
2022-07-30T13:17:12.177Z,1.08
2022-07-30T13:19:41.889Z,1.55
2022-07-30T13:22:09.067Z,1.00
2022-07-30T13:24:39.407Z,1.40
2022-07-30T13:27:06.413Z,1.85
2022-07-30T13:29:33.605Z,2.38
2022-07-30T13:32:00.435Z,4.45
2022-07-30T13:34:27.209Z,2.38
2022-07-30T13:36:54.000Z,4.43
2022-07-30T13:39:20.804Z,6.90
2022-07-30T13:41:47.648Z,5.13
2022-07-30T13:44:14.408Z,8.32
2022-07-30T13:46:41.503Z,4.50
2022-07-30T13:49:08.608Z,8.10
2022-07-30T13:51:35.372Z,7.03
2022-07-30T13:54:04.500Z,4.63
2022-07-30T13:56:40.568Z,4.00
2022-07-30T13:59:07.854Z,6.60
2022-07-30T14:01:36.036Z,4.85
2022-07-30T14:04:02.872Z,5.57
2022-07-30T14:06:29.710Z,5.72
2022-07-30T14:08:56.490Z,3.60
2022-07-30T14:11:23.250Z,3.50
2022-07-30T14:13:49.939Z,3.38
2022-07-30T14:16:43.786Z,2.83
2022-07-30T14:19:23.045Z,6.72
2022-07-30T14:21:52.762Z,4.10
2022-07-30T14:24:20.234Z,3.28
2022-07-30T14:26:47.275Z,2.83
2022-07-30T14:29:17.327Z,2.00
2022-07-30T14:31:44.229Z,3.17
2022-07-30T14:34:13.171Z,5.50
2022-07-30T14:36:39.902Z,4.30
2022-07-30T14:39:09.190Z,5.50
2022-07-30T14:41:37.358Z,4.60
2022-07-30T14:44:04.945Z,3.35
2022-07-30T14:46:32.092Z,4.03
2022-07-30T14:48:58.872Z,3.10
2022-07-30T14:51:26.747Z,3.53
2022-07-30T14:53:57.415Z,1.70
2022-07-30T14:56:25.313Z,2.75
2022-07-30T14:58:53.179Z,3.55
2022-07-30T15:01:20.108Z,3.92
2022-07-30T15:03:47.818Z,5.57
2022-07-30T15:06:15.621Z,1.92
2022-07-30T15:08:43.360Z,3.65
2022-07-30T15:11:10.174Z,4.15
2022-07-30T15:13:38.557Z,4.25
2022-07-30T15:16:07.775Z,4.55
2022-07-30T15:18:34.487Z,3.53
2022-07-30T15:21:01.388Z,4.05
2022-07-30T15:23:28.252Z,2.38
2022-07-30T15:25:55.119Z,3.47
2022-07-30T15:28:22.225Z,4.13
2022-07-30T15:30:49.001Z,4.60
2022-07-30T15:33:15.918Z,4.70
2022-07-30T15:35:42.661Z,5.55
2022-07-30T15:38:09.442Z,3.88
2022-07-30T15:40:36.195Z,4.88
2022-07-30T15:43:05.093Z,3.63
2022-07-30T15:45:38.036Z,3.53
2022-07-30T15:48:24.958Z,4.03
2022-07-30T15:51:00.199Z,2.60
2022-07-30T15:53:26.901Z,5.38
2022-07-30T15:55:53.672Z,4.78
2022-07-30T15:58:20.413Z,7.75
2022-07-30T16:00:47.313Z,7.05
2022-07-30T16:03:14.180Z,8.80
2022-07-30T16:05:52.212Z,4.35
2022-07-30T16:08:20.555Z,7.95
2022-07-30T16:10:48.156Z,4.72
2022-07-30T16:13:15.001Z,4.95
2022-07-30T16:15:41.735Z,5.20
2022-07-30T16:18:08.551Z,7.18
2022-07-30T16:20:35.267Z,6.97
2022-07-30T16:23:02.434Z,3.35
2022-07-30T16:25:29.208Z,6.55
2022-07-30T16:27:55.946Z,8.52
2022-07-30T16:30:27.481Z,4.80
2022-07-30T16:32:56.493Z,4.25
2022-07-30T16:35:23.535Z,5.38
2022-07-30T16:37:50.359Z,5.05
2022-07-30T16:40:17.123Z,5.10
2022-07-30T16:42:43.936Z,5.88
2022-07-30T16:45:11.082Z,6.47
2022-07-30T16:47:38.249Z,9.10
2022-07-30T16:50:05.630Z,6.60
2022-07-30T16:52:32.352Z,7.40
2022-07-30T16:54:59.043Z,7.63
2022-07-30T16:57:25.719Z,4.20
2022-07-30T16:59:52.535Z,5.75
2022-07-30T17:02:19.272Z,5.78
2022-07-30T17:04:46.090Z,5.15
2022-07-30T17:07:13.352Z,7.60
2022-07-30T17:09:40.148Z,4.82
2022-07-30T17:12:12.157Z,5.35
2022-07-30T17:14:42.811Z,8.95
2022-07-30T17:17:14.295Z,6.35
2022-07-30T17:19:45.868Z,5.43
2022-07-30T17:22:12.660Z,3.08
2022-07-30T17:24:40.100Z,4.72
2022-07-30T17:27:07.152Z,4.15
2022-07-30T17:29:33.894Z,3.58
2022-07-30T17:32:00.962Z,4.28
2022-07-30T17:34:28.011Z,4.25
2022-07-30T17:36:54.874Z,6.28
2022-07-30T17:40:04.214Z,6.45
2022-07-30T17:42:10.758Z,5.13
2022-07-30T17:44:39.581Z,4.80
2022-07-30T17:47:11.027Z,6.03
2022-07-30T17:49:40.727Z,6.25
2022-07-30T17:52:07.545Z,4.10
2022-07-30T17:54:34.422Z,4.78
2022-07-30T17:57:01.115Z,7.47
2022-07-30T17:59:27.855Z,3.95
2022-07-30T18:01:55.139Z,6.70
2022-07-30T18:04:21.898Z,6.75
2022-07-30T18:06:50.788Z,7.03
2022-07-30T18:09:17.903Z,8.55
2022-07-30T18:11:45.273Z,8.35
2022-07-30T18:14:12.295Z,4.78
2022-07-30T18:16:39.418Z,5.25
2022-07-30T18:19:06.165Z,6.95
2022-07-30T18:21:33.314Z,4.47
2022-07-30T18:24:00.064Z,8.80
2022-07-30T18:26:27.133Z,5.28
2022-07-30T18:28:53.894Z,3.92
2022-07-30T18:31:20.732Z,3.88
2022-07-30T18:33:49.399Z,7.78
2022-07-30T18:36:16.170Z,2.90
2022-07-30T18:38:46.432Z,3.38
2022-07-30T18:41:13.251Z,3.17
2022-07-30T18:43:48.215Z,1.88
2022-07-30T18:46:15.871Z,2.30
2022-07-30T18:48:42.753Z,3.03
2022-07-30T18:51:13.685Z,6.05
2022-07-30T18:53:42.063Z,4.13
2022-07-30T18:56:09.249Z,4.22
2022-07-30T18:58:38.097Z,4.40
2022-07-30T19:01:05.392Z,3.13
2022-07-30T19:03:32.358Z,3.30
2022-07-30T19:05:59.295Z,2.85
2022-07-30T19:08:56.823Z,6.13
2022-07-30T19:11:32.087Z,2.80
2022-07-30T19:13:59.200Z,8.63
2022-07-30T19:16:26.460Z,5.43
2022-07-30T19:18:53.141Z,8.23
2022-07-30T19:21:19.913Z,9.00
2022-07-30T19:23:46.634Z,9.25
2022-07-30T19:26:14.677Z,15.57
2022-07-30T19:28:41.479Z,9.77
2022-07-30T19:31:08.372Z,8.73
2022-07-30T19:33:35.081Z,11.18
2022-07-30T19:36:02.925Z,6.75
2022-07-30T19:38:29.811Z,8.70
2022-07-30T19:40:57.204Z,10.80
2022-07-30T19:43:24.592Z,8.27
2022-07-30T19:45:53.864Z,14.23
2022-07-30T19:48:29.168Z,10.10
2022-07-30T19:51:00.541Z,11.38
2022-07-30T19:53:27.905Z,9.63
2022-07-30T19:55:58.714Z,11.35
2022-07-30T19:58:26.002Z,11.07
2022-07-30T20:00:53.154Z,8.05
2022-07-30T20:03:26.086Z,7.75
2022-07-30T20:05:59.294Z,7.93
2022-07-30T20:08:27.133Z,7.13
2022-07-30T20:10:57.544Z,7.30
2022-07-30T20:13:45.095Z,9.23
2022-07-30T20:16:12.954Z,7.00
2022-07-30T20:18:40.053Z,6.40
2022-07-30T20:21:12.618Z,6.57
2022-07-30T20:23:41.777Z,7.90
2022-07-30T20:26:13.073Z,9.07
2022-07-30T20:28:52.875Z,7.50
2022-07-30T20:31:20.497Z,8.32
2022-07-30T20:33:49.517Z,8.50
2022-07-30T20:36:18.140Z,6.78
2022-07-30T20:38:47.355Z,8.63
2022-07-30T20:41:15.469Z,8.07
2022-07-30T20:43:52.277Z,9.23
2022-07-30T20:46:23.299Z,7.72
2022-07-30T20:48:51.327Z,10.43
2022-07-30T20:51:20.301Z,6.70
2022-07-30T20:53:47.459Z,6.47
2022-07-30T20:56:19.342Z,6.13
2022-07-30T20:58:47.472Z,9.68
2022-07-30T21:01:17.647Z,10.00
2022-07-30T21:03:47.657Z,9.10
2022-07-30T21:06:15.079Z,8.55
2022-07-30T21:08:41.733Z,8.70
2022-07-30T21:11:09.726Z,14.32
2022-07-30T21:13:55.490Z,10.85
2022-07-30T21:16:23.772Z,11.02
2022-07-30T21:18:50.866Z,11.00
2022-07-30T21:21:30.748Z,12.32
2022-07-30T21:24:05.812Z,9.68
2022-07-30T21:29:09.347Z,13.15
2022-07-30T21:31:59.063Z,16.40
2022-07-30T21:34:26.393Z,9.65
2022-07-30T21:36:54.469Z,13.38
2022-07-30T21:39:28.838Z,8.57
2022-07-30T21:41:56.312Z,11.32
2022-07-30T21:44:23.835Z,11.20
2022-07-30T21:46:50.589Z,10.68
2022-07-30T21:49:17.524Z,9.77
2022-07-30T21:51:44.630Z,9.85
2022-07-30T21:54:11.424Z,10.48
2022-07-30T21:56:41.495Z,11.90
2022-07-30T21:59:09.064Z,10.45
2022-07-30T22:01:39.321Z,12.48
2022-07-30T22:04:14.656Z,10.35
2022-07-30T22:06:46.894Z,7.30
2022-07-30T22:09:19.062Z,10.65
2022-07-30T22:12:01.349Z,10.57
2022-07-30T22:14:29.108Z,8.70
2022-07-30T22:16:56.518Z,9.77
2022-07-30T22:19:23.886Z,7.78
2022-07-30T22:21:52.921Z,8.85
2022-07-30T22:24:29.680Z,13.57
2022-07-30T22:27:01.632Z,8.35
2022-07-30T22:29:38.255Z,10.07
2022-07-30T22:32:07.957Z,9.02
2022-07-30T22:34:35.000Z,6.93
2022-07-30T22:37:01.667Z,8.55
2022-07-30T22:39:32.292Z,12.73
2022-07-30T22:42:16.157Z,12.00
2022-07-30T22:44:46.061Z,8.60
2022-07-30T22:47:20.989Z,5.07
2022-07-30T22:49:55.300Z,6.80
2022-07-30T22:52:30.922Z,11.13
2022-07-30T22:55:10.341Z,6.30
2022-07-30T22:57:40.260Z,9.45
2022-07-30T23:00:11.058Z,11.88
2022-07-30T23:02:40.405Z,7.72
2022-07-30T23:05:10.037Z,7.97
2022-07-30T23:07:39.672Z,10.48
2022-07-30T23:10:17.195Z,8.57
2022-07-30T23:12:46.655Z,12.27
2022-07-30T23:15:13.699Z,7.80
2022-07-30T23:17:40.893Z,10.77
2022-07-30T23:20:10.162Z,5.70
2022-07-30T23:22:37.480Z,6.10
2022-07-30T23:25:10.309Z,10.70
2022-07-30T23:27:37.580Z,7.28
2022-07-30T23:30:04.767Z,6.38
2022-07-30T23:32:32.246Z,7.88
2022-07-30T23:34:59.101Z,5.82
2022-07-30T23:37:25.833Z,7.75
2022-07-30T23:39:53.084Z,7.18
2022-07-30T23:42:19.830Z,8.13
2022-07-30T23:44:46.594Z,7.50
2022-07-30T23:47:13.251Z,5.65
2022-07-30T23:49:39.897Z,5.18
2022-07-30T23:52:06.598Z,9.48
2022-07-30T23:54:33.287Z,6.30
2022-07-30T23:57:00.160Z,5.50
2022-07-30T23:59:40.350Z,7.45
